createdAt,value
2024-03-07T00:00:24.602Z,100832.72
2024-03-07T00:03:12.834Z,100830.84
2024-03-07T00:05:41.425Z,100828.94
2024-03-07T00:08:11.414Z,100826.19
2024-03-07T00:10:40.038Z,100827.19
2024-03-07T00:13:09.464Z,100836.94
2024-03-07T00:15:38.198Z,100829.84
2024-03-07T00:18:07.311Z,100828.41
2024-03-07T00:20:36.771Z,100830.00
2024-03-07T00:23:05.502Z,100821.97
2024-03-07T00:25:34.547Z,100821.28
2024-03-07T00:28:05.797Z,100830.44
2024-03-07T00:30:35.511Z,100824.63
2024-03-07T00:33:04.178Z,100825.44
2024-03-07T00:35:33.022Z,100834.69
2024-03-07T00:38:01.418Z,100833.19
2024-03-07T00:40:30.546Z,100835.78
2024-03-07T00:43:00.726Z,100832.47
2024-03-07T00:45:29.749Z,100823.19
2024-03-07T00:47:58.260Z,100833.50
2024-03-07T00:50:26.977Z,100828.97
2024-03-07T00:52:55.423Z,100816.72
2024-03-07T00:55:24.596Z,100832.72
2024-03-07T00:57:52.871Z,100824.69
2024-03-07T01:00:23.186Z,100827.88
2024-03-07T01:02:54.661Z,100825.31
2024-03-07T01:05:23.509Z,100821.38
2024-03-07T01:07:51.915Z,100828.13
2024-03-07T01:10:20.697Z,100819.53
2024-03-07T01:12:51.352Z,100817.25
2024-03-07T01:15:20.184Z,100818.38
2024-03-07T01:17:48.738Z,100815.84
2024-03-07T01:20:17.621Z,100812.88
2024-03-07T01:22:46.279Z,100815.38
2024-03-07T01:25:14.986Z,100811.59
2024-03-07T01:27:43.398Z,100814.16
2024-03-07T01:30:12.811Z,100811.69
2024-03-07T01:32:41.197Z,100808.50
2024-03-07T01:35:11.579Z,100806.75
2024-03-07T01:37:39.812Z,100800.72
2024-03-07T01:40:09.639Z,100798.00
2024-03-07T01:42:37.847Z,100797.63
2024-03-07T01:45:06.824Z,100787.19
2024-03-07T01:47:35.187Z,100788.47
2024-03-07T01:50:05.149Z,100789.53
2024-03-07T01:52:33.732Z,100785.63
2024-03-07T01:55:04.340Z,100791.41
2024-03-07T01:57:33.197Z,100783.56
2024-03-07T02:00:07.702Z,100777.78
2024-03-07T02:02:36.944Z,100781.66
2024-03-07T02:05:05.992Z,100786.28
2024-03-07T02:07:34.624Z,100782.16
2024-03-07T02:10:07.282Z,100782.50
2024-03-07T02:12:35.481Z,100776.69
2024-03-07T02:15:04.314Z,100779.72
2024-03-07T02:17:33.587Z,100774.00
2024-03-07T02:20:02.227Z,100772.75
2024-03-07T02:22:30.378Z,100770.72
2024-03-07T02:24:59.114Z,100769.03
2024-03-07T02:27:27.246Z,100768.72
2024-03-07T02:29:55.976Z,100769.38
2024-03-07T02:32:24.772Z,100770.84
2024-03-07T02:34:54.077Z,100773.47
2024-03-07T02:37:22.249Z,100774.38
2024-03-07T02:39:51.109Z,100773.34
2024-03-07T02:42:19.429Z,100773.66
2024-03-07T02:44:48.501Z,100772.69
2024-03-07T02:47:17.066Z,100772.56
2024-03-07T02:49:45.947Z,100765.78
2024-03-07T02:52:14.073Z,100763.41
2024-03-07T02:54:42.713Z,100764.28
2024-03-07T02:57:12.934Z,100769.44
2024-03-07T02:59:41.650Z,100764.06
2024-03-07T03:02:09.800Z,100758.38
2024-03-07T03:04:38.555Z,100761.25
2024-03-07T03:07:08.485Z,100756.19
2024-03-07T03:09:41.436Z,100756.09
2024-03-07T03:12:10.240Z,100760.03
2024-03-07T03:14:39.085Z,100752.44
2024-03-07T03:17:10.352Z,100751.63
2024-03-07T03:19:39.054Z,100747.00
2024-03-07T03:22:10.409Z,100746.03
2024-03-07T03:24:42.687Z,100752.81
2024-03-07T03:27:12.284Z,100762.50
2024-03-07T03:29:42.350Z,100753.19
2024-03-07T03:32:10.534Z,100757.56
2024-03-07T03:34:39.194Z,100753.38
2024-03-07T03:37:07.500Z,100763.00
2024-03-07T03:39:36.521Z,100767.50
2024-03-07T03:42:04.933Z,100766.44
2024-03-07T03:44:33.399Z,100766.34
2024-03-07T03:47:05.351Z,100770.06
2024-03-07T03:49:33.927Z,100766.78
2024-03-07T03:52:02.351Z,100764.56
2024-03-07T03:54:31.205Z,100753.47
2024-03-07T03:57:00.404Z,100765.63
2024-03-07T03:59:29.217Z,100763.34
2024-03-07T04:01:57.352Z,100754.50
2024-03-07T04:04:27.444Z,100765.03
2024-03-07T04:06:55.707Z,100754.09
2024-03-07T04:09:24.873Z,100757.72
2024-03-07T04:11:53.219Z,100755.53
2024-03-07T04:14:21.798Z,100754.78
2024-03-07T04:16:50.111Z,100760.00
2024-03-07T06:36:00.267Z,100843.19
2024-03-07T06:38:28.893Z,100841.44
2024-03-07T06:40:57.001Z,100837.91
2024-03-07T06:43:25.950Z,100836.00
2024-03-07T06:45:53.929Z,100841.72
2024-03-07T06:48:22.746Z,100843.47
2024-03-07T06:50:52.272Z,100840.69
2024-03-07T06:53:21.745Z,100831.53
2024-03-07T06:55:50.698Z,100834.31
2024-03-07T06:58:19.140Z,100836.53
2024-03-07T07:00:47.298Z,100838.00
2024-03-07T07:03:15.799Z,100839.28
2024-03-07T07:05:44.025Z,100831.03
2024-03-07T07:08:15.100Z,100832.38
2024-03-07T07:10:44.290Z,100829.28
2024-03-07T07:13:14.540Z,100822.22
2024-03-07T07:15:42.673Z,100837.09
2024-03-07T07:18:12.114Z,100829.72
2024-03-07T07:20:40.488Z,100841.72
2024-03-07T07:23:09.137Z,100843.06
2024-03-07T07:25:37.352Z,100852.81
2024-03-07T07:28:06.430Z,100839.53
2024-03-07T07:30:34.937Z,100848.34
2024-03-07T07:33:03.644Z,100840.50
2024-03-07T07:35:32.623Z,100845.53
2024-03-07T07:38:01.129Z,100846.31
2024-03-07T07:40:29.642Z,100851.41
2024-03-07T07:42:58.204Z,100841.38
2024-03-07T07:45:26.516Z,100863.44
2024-03-07T07:47:55.880Z,100859.16
2024-03-07T07:50:25.682Z,100861.22
2024-03-07T07:52:56.530Z,100858.50
2024-03-07T07:55:26.909Z,100848.72
2024-03-07T07:57:58.165Z,100862.56
2024-03-07T08:00:30.790Z,100861.31
2024-03-07T08:03:05.266Z,100847.94
2024-03-07T08:05:34.505Z,100847.28
2024-03-07T08:08:08.396Z,100846.19
2024-03-07T08:10:38.022Z,100844.28
2024-03-07T08:13:12.040Z,100850.75
2024-03-07T08:15:40.824Z,100845.97
2024-03-07T08:18:12.777Z,100850.31
2024-03-07T08:20:42.782Z,100858.41
2024-03-07T08:23:11.980Z,100862.59
2024-03-07T08:25:42.206Z,100859.59
2024-03-07T08:28:10.802Z,100863.38
2024-03-07T08:30:39.330Z,100856.44
2024-03-07T08:33:09.342Z,100861.03
2024-03-07T08:35:37.983Z,100855.75
2024-03-07T08:38:06.585Z,100856.91
2024-03-07T08:40:35.735Z,100865.09
2024-03-07T08:43:05.157Z,100860.78
2024-03-07T08:45:35.811Z,100861.81
2024-03-07T08:48:06.272Z,100859.19
2024-03-07T08:50:36.050Z,100867.13
2024-03-07T08:53:08.834Z,100868.88
2024-03-07T08:55:38.145Z,100860.13
2024-03-07T08:58:10.258Z,100868.31
2024-03-07T09:00:40.078Z,100869.22
2024-03-07T09:03:12.391Z,100866.47
2024-03-07T09:05:42.567Z,100876.94
2024-03-07T09:08:11.310Z,100871.19
2024-03-07T09:10:45.134Z,100875.84
2024-03-07T09:13:14.004Z,100870.78
2024-03-07T09:15:42.211Z,100876.69
2024-03-07T09:18:10.936Z,100869.19
2024-03-07T09:20:39.494Z,100875.16
2024-03-07T09:23:08.557Z,100875.19
2024-03-07T09:25:37.778Z,100878.38
2024-03-07T09:28:07.969Z,100873.59
2024-03-07T09:30:40.300Z,100873.47
2024-03-07T09:33:12.594Z,100871.41
2024-03-07T09:35:41.528Z,100877.47
2024-03-07T09:38:10.160Z,100875.84
2024-03-07T09:40:39.048Z,100877.72
2024-03-07T09:43:11.383Z,100873.22
2024-03-07T09:45:41.548Z,100873.97
2024-03-07T09:48:10.798Z,100879.34
2024-03-07T09:50:39.964Z,100882.88
2024-03-07T09:53:10.220Z,100878.72
2024-03-07T09:55:39.019Z,100889.44
2024-03-07T09:58:10.712Z,100882.88
2024-03-07T10:00:39.778Z,100879.28
2024-03-07T10:03:10.887Z,100884.59
2024-03-07T10:05:40.470Z,100881.22
2024-03-07T10:08:09.413Z,100885.66
2024-03-07T10:10:37.908Z,100886.16
2024-03-07T10:13:07.187Z,100885.19
2024-03-07T10:15:36.276Z,100885.50
2024-03-07T10:18:09.830Z,100883.59
2024-03-07T10:20:38.662Z,100894.16
2024-03-07T10:23:09.347Z,100891.56
2024-03-07T10:25:38.920Z,100894.25
2024-03-07T10:28:10.216Z,100895.25
2024-03-07T10:30:51.813Z,100888.06
2024-03-07T10:33:21.586Z,100887.66
2024-03-07T10:35:51.067Z,100890.69
2024-03-07T10:38:20.714Z,100887.78
2024-03-07T10:40:51.076Z,100884.94
2024-03-07T10:43:21.951Z,100891.06
2024-03-07T10:45:53.935Z,100886.50
2024-03-07T10:48:29.720Z,100893.91
2024-03-07T10:51:26.629Z,100893.25
2024-03-07T10:54:09.474Z,100888.88
2024-03-07T10:56:57.910Z,100891.13
2024-03-07T10:59:34.870Z,100886.53
2024-03-07T11:02:28.598Z,100894.81
2024-03-07T11:04:57.778Z,100895.66
2024-03-07T11:07:26.537Z,100894.94
2024-03-07T11:09:56.992Z,100885.94
2024-03-07T11:12:26.434Z,100881.03
2024-03-07T11:14:58.022Z,100883.94
2024-03-07T11:17:26.860Z,100887.50
2024-03-07T11:19:55.325Z,100884.72
2024-03-07T11:22:32.769Z,100881.84
2024-03-07T11:25:08.808Z,100877.66
2024-03-07T11:27:41.233Z,100873.53
2024-03-07T11:30:11.813Z,100877.50
2024-03-07T11:32:40.569Z,100865.28
2024-03-07T11:35:15.857Z,100867.81
2024-03-07T11:37:48.268Z,100863.22
2024-03-07T11:40:26.217Z,100859.06
2024-03-07T11:43:01.394Z,100855.13
2024-03-07T11:45:31.584Z,100855.69
2024-03-07T11:48:11.192Z,100853.34
2024-03-07T11:50:41.814Z,100852.00
2024-03-07T11:53:11.039Z,100847.25
2024-03-07T11:55:47.516Z,100848.94
2024-03-07T11:58:18.420Z,100840.78
2024-03-07T12:00:47.762Z,100839.53
2024-03-07T12:03:25.210Z,100839.41
2024-03-07T12:05:54.338Z,100833.50
2024-03-07T12:08:25.553Z,100833.03
2024-03-07T12:10:58.972Z,100827.50
2024-03-07T12:13:28.968Z,100828.53
2024-03-07T12:16:00.243Z,100818.47
2024-03-07T12:18:31.118Z,100820.94
2024-03-07T12:21:00.563Z,100816.00
2024-03-07T12:23:29.503Z,100813.34
2024-03-07T12:26:05.022Z,100810.63
2024-03-07T12:28:40.196Z,100813.69
2024-03-07T12:31:17.586Z,100807.22
2024-03-07T12:33:53.459Z,100797.22
2024-03-07T12:36:24.469Z,100794.19
2024-03-07T12:38:57.174Z,100792.13
2024-03-07T12:41:25.578Z,100788.00
2024-03-07T12:43:55.228Z,100791.66
2024-03-07T12:46:23.468Z,100789.38
2024-03-07T12:48:52.265Z,100788.06
2024-03-07T12:51:21.408Z,100783.84
2024-03-07T12:53:54.067Z,100777.47
2024-03-07T12:56:22.222Z,100778.88
2024-03-07T12:58:51.917Z,100776.91
2024-03-07T13:01:21.382Z,100771.19
2024-03-07T13:03:51.225Z,100775.19
2024-03-07T13:06:27.553Z,100772.31
2024-03-07T13:08:59.687Z,100766.00
2024-03-07T13:11:31.893Z,100771.00
2024-03-07T13:14:01.252Z,100772.44
2024-03-07T13:16:32.570Z,100763.28
2024-03-07T13:19:02.596Z,100765.75
2024-03-07T13:21:32.112Z,100748.81
2024-03-07T13:24:02.226Z,100758.97
2024-03-07T13:26:33.192Z,100760.03
2024-03-07T13:29:03.057Z,100761.06
2024-03-07T13:31:31.224Z,100758.19
2024-03-07T13:34:03.505Z,100759.22
2024-03-07T13:36:31.844Z,100757.41
2024-03-07T13:39:00.697Z,100750.00
2024-03-07T13:41:30.113Z,100751.50
2024-03-07T13:44:01.434Z,100755.66
2024-03-07T13:46:30.263Z,100761.75
2024-03-07T13:49:08.674Z,100749.75
2024-03-07T13:51:37.197Z,100754.91
2024-03-07T13:54:29.463Z,100756.00
2024-03-07T13:57:21.529Z,100742.63
2024-03-07T14:00:18.013Z,100754.13
2024-03-07T14:03:03.669Z,100749.25
2024-03-07T14:05:46.616Z,100733.19
2024-03-07T14:08:43.246Z,100734.56
2024-03-07T14:11:36.792Z,100733.56
2024-03-07T14:14:44.947Z,100729.56
2024-03-07T14:17:25.668Z,100722.03
2024-03-07T14:20:20.700Z,100724.53
2024-03-07T14:23:18.219Z,100718.44
2024-03-07T14:26:24.318Z,100722.28
2024-03-07T14:29:37.315Z,100724.31
2024-03-07T14:32:06.177Z,100723.16
2024-03-07T14:34:58.400Z,100717.75
2024-03-07T14:37:33.110Z,100720.25
2024-03-07T14:40:15.320Z,100714.59
2024-03-07T14:42:46.604Z,100711.25
2024-03-07T14:45:24.942Z,100711.50
2024-03-07T14:47:56.475Z,100707.56
2024-03-07T14:50:28.999Z,100712.19
2024-03-07T14:52:57.912Z,100718.44
2024-03-07T14:55:26.317Z,100713.94
2024-03-07T14:57:54.408Z,100718.63
2024-03-07T15:00:34.180Z,100718.53
2024-03-07T15:03:08.004Z,100715.22
2024-03-07T15:05:37.876Z,100711.75
2024-03-07T15:08:06.253Z,100714.09
2024-03-07T15:10:39.450Z,100717.38
2024-03-07T15:13:09.640Z,100712.97
2024-03-07T15:15:38.101Z,100712.94
2024-03-07T15:18:06.466Z,100710.28
2024-03-07T15:20:34.999Z,100703.84
2024-03-07T15:23:10.007Z,100706.69
2024-03-07T15:25:38.363Z,100701.56
2024-03-07T15:28:06.560Z,100702.06
2024-03-07T15:30:38.066Z,100699.50
2024-03-07T15:33:06.887Z,100698.78
2024-03-07T15:35:36.668Z,100689.66
2024-03-07T15:38:05.844Z,100696.41
2024-03-07T15:40:35.551Z,100689.34
2024-03-07T15:43:04.884Z,100691.72
2024-03-07T15:45:33.579Z,100689.94
2024-03-07T15:48:12.241Z,100697.50
2024-03-07T15:50:45.750Z,100694.91
2024-03-07T15:53:15.000Z,100695.44
2024-03-07T15:55:44.490Z,100692.31
2024-03-07T15:58:12.800Z,100693.88
2024-03-07T16:00:42.584Z,100690.09
2024-03-07T16:03:13.828Z,100688.94
2024-03-07T16:05:48.660Z,100688.84
2024-03-07T16:08:20.507Z,100691.19
2024-03-07T16:10:50.144Z,100690.94
2024-03-07T16:13:18.594Z,100683.06
2024-03-07T16:15:48.726Z,100682.75
2024-03-07T16:18:17.654Z,100675.94
2024-03-07T16:20:48.945Z,100685.13
2024-03-07T16:23:18.269Z,100683.81
2024-03-07T16:25:47.142Z,100688.50
2024-03-07T16:28:17.491Z,100680.75
2024-03-07T16:30:47.201Z,100686.13
2024-03-07T16:33:19.261Z,100682.22
2024-03-07T16:35:49.242Z,100685.03
2024-03-07T16:38:17.683Z,100685.72
2024-03-07T16:40:46.668Z,100687.47
2024-03-07T16:43:14.893Z,100688.16
2024-03-07T16:45:44.270Z,100686.81
2024-03-07T16:48:13.305Z,100686.00
2024-03-07T16:50:43.254Z,100691.44
2024-03-07T16:53:12.945Z,100695.34
2024-03-07T16:55:41.464Z,100682.69
2024-03-07T16:58:17.766Z,100697.47
2024-03-07T17:00:46.293Z,100686.16
2024-03-07T17:03:16.873Z,100688.38
2024-03-07T17:05:46.323Z,100700.50
2024-03-07T17:08:17.715Z,100696.47
2024-03-07T17:10:47.492Z,100695.13
2024-03-07T17:13:17.189Z,100694.53
2024-03-07T17:15:47.702Z,100691.81
2024-03-07T17:18:17.024Z,100689.38
2024-03-07T17:20:47.261Z,100696.66
2024-03-07T17:23:17.108Z,100695.75
2024-03-07T17:25:48.362Z,100697.44
2024-03-07T17:28:18.234Z,100701.81
2024-03-07T17:30:47.050Z,100694.88
2024-03-07T17:33:17.252Z,100706.06
2024-03-07T17:35:46.344Z,100703.03
2024-03-07T17:38:15.932Z,100706.84
2024-03-07T17:40:44.748Z,100708.28
2024-03-07T17:43:12.965Z,100703.00
2024-03-07T17:45:42.485Z,100707.97
2024-03-07T17:48:12.209Z,100707.50
2024-03-07T17:50:43.760Z,100717.53
2024-03-07T17:53:15.301Z,100711.06
2024-03-07T17:55:46.727Z,100716.44
2024-03-07T17:58:15.890Z,100717.06
2024-03-07T18:00:46.774Z,100716.63
2024-03-07T18:03:18.187Z,100722.34
2024-03-07T18:05:53.756Z,100721.78
2024-03-07T18:08:34.841Z,100723.22
2024-03-07T18:11:15.348Z,100725.09
2024-03-07T18:13:45.391Z,100731.78
2024-03-07T18:16:17.400Z,100724.72
2024-03-07T18:18:51.261Z,100726.72
2024-03-07T18:21:20.010Z,100724.47
2024-03-07T18:23:48.249Z,100722.81
2024-03-07T18:26:16.809Z,100729.19
2024-03-07T18:28:45.747Z,100727.41
2024-03-07T18:31:19.445Z,100724.69
2024-03-07T18:33:47.914Z,100714.31
2024-03-07T18:36:16.631Z,100711.81
2024-03-07T18:38:46.856Z,100715.63
2024-03-07T18:41:17.462Z,100716.91
2024-03-07T18:43:45.619Z,100716.00
2024-03-07T18:46:14.154Z,100718.44
2024-03-07T18:48:43.922Z,100708.97
2024-03-07T18:51:12.940Z,100713.25
2024-03-07T18:53:41.315Z,100716.84
2024-03-07T18:56:12.523Z,100712.66
2024-03-07T18:58:40.989Z,100721.56
2024-03-07T19:01:09.908Z,100710.19
2024-03-07T19:03:38.280Z,100715.19
2024-03-07T19:06:10.469Z,100706.88
2024-03-07T19:08:38.909Z,100711.59
2024-03-07T19:11:08.221Z,100718.84
2024-03-07T19:13:37.616Z,100713.63
2024-03-07T19:16:08.174Z,100712.38
2024-03-07T19:18:36.369Z,100720.69
2024-03-07T19:21:11.852Z,100720.69
2024-03-07T19:23:47.021Z,100720.06
2024-03-07T19:26:21.132Z,100719.16
2024-03-07T19:28:49.897Z,100719.94
2024-03-07T19:31:18.350Z,100721.75
2024-03-07T19:33:46.843Z,100724.50
2024-03-07T19:36:15.827Z,100712.00
2024-03-07T19:38:47.625Z,100712.72
2024-03-07T19:41:16.706Z,100720.66
2024-03-07T19:43:45.162Z,100721.44
2024-03-07T19:46:13.740Z,100717.78
2024-03-07T19:48:42.285Z,100720.41
2024-03-07T19:51:11.391Z,100721.97
2024-03-07T19:53:40.811Z,100718.84
2024-03-07T19:56:09.685Z,100719.34
2024-03-07T19:58:39.459Z,100724.91
2024-03-07T20:01:13.231Z,100724.50
2024-03-07T20:03:42.098Z,100722.63
2024-03-07T20:06:10.827Z,100720.47
2024-03-07T20:08:39.596Z,100725.63
2024-03-07T20:11:08.518Z,100730.47
2024-03-07T20:13:41.840Z,100731.13
2024-03-07T20:16:10.378Z,100738.53
2024-03-07T20:18:41.344Z,100733.53
2024-03-07T20:21:11.162Z,100738.28
2024-03-07T20:23:41.809Z,100739.16
2024-03-07T20:26:10.438Z,100741.28
2024-03-07T20:28:38.787Z,100740.91
2024-03-07T20:31:09.692Z,100741.22
2024-03-07T20:33:38.745Z,100744.53
2024-03-07T20:36:10.393Z,100750.13
2024-03-07T20:38:39.656Z,100748.38
2024-03-07T20:41:08.369Z,100745.25
2024-03-07T20:43:37.529Z,100750.34
2024-03-07T20:46:07.483Z,100749.47
2024-03-07T20:48:37.253Z,100748.84
2024-03-07T20:51:07.466Z,100747.31
2024-03-07T20:53:35.944Z,100751.66
2024-03-07T20:56:07.772Z,100748.72
2024-03-07T20:58:36.871Z,100757.06
2024-03-07T21:01:09.465Z,100749.56
2024-03-07T21:03:42.901Z,100750.31
2024-03-07T21:06:12.264Z,100758.28
2024-03-07T21:08:41.381Z,100753.41
2024-03-07T21:11:10.447Z,100760.06
2024-03-07T21:13:40.489Z,100760.19
2024-03-07T21:16:12.876Z,100762.13
2024-03-07T21:18:41.664Z,100759.09
2024-03-07T21:21:10.676Z,100763.50
2024-03-07T21:23:41.857Z,100761.00
2024-03-07T21:26:13.358Z,100767.59
2024-03-07T21:28:42.324Z,100766.97
2024-03-07T21:31:10.740Z,100762.94
2024-03-07T21:33:40.926Z,100764.44
2024-03-07T21:36:11.082Z,100763.34
2024-03-07T21:38:40.172Z,100760.22
2024-03-07T21:41:10.682Z,100757.84
2024-03-07T21:43:38.847Z,100767.16
2024-03-07T21:46:07.665Z,100764.16
2024-03-07T21:48:36.024Z,100769.34
2024-03-07T21:51:04.882Z,100764.13
2024-03-07T21:53:33.032Z,100773.28
2024-03-07T21:56:03.506Z,100767.47
2024-03-07T21:58:31.628Z,100768.69
2024-03-07T22:01:00.040Z,100766.81
2024-03-07T22:03:28.115Z,100770.59
2024-03-07T22:05:57.739Z,100770.88
2024-03-07T22:08:28.262Z,100771.81
2024-03-07T22:10:56.651Z,100767.59
2024-03-07T22:13:24.914Z,100774.38
2024-03-07T22:15:53.207Z,100772.81
2024-03-07T22:18:22.562Z,100771.53
2024-03-07T22:20:51.302Z,100775.63
2024-03-07T22:23:19.452Z,100774.84
2024-03-07T22:25:48.331Z,100762.56
2024-03-07T22:28:16.498Z,100765.03
2024-03-07T22:30:45.578Z,100763.53
2024-03-07T22:33:13.714Z,100765.88
2024-03-07T22:35:42.226Z,100756.13
2024-03-07T22:38:10.575Z,100761.81
2024-03-07T22:40:38.967Z,100767.28
2024-03-07T22:43:07.192Z,100766.84
2024-03-07T22:45:35.679Z,100764.13
2024-03-07T22:48:04.061Z,100765.06
2024-03-07T22:50:33.485Z,100765.72
2024-03-07T22:53:03.097Z,100761.19
2024-03-07T22:55:33.657Z,100755.09
2024-03-07T22:58:01.773Z,100762.13
2024-03-07T23:00:33.638Z,100764.34
2024-03-07T23:03:06.168Z,100763.53
2024-03-07T23:05:35.635Z,100764.06
2024-03-07T23:08:03.905Z,100759.63
2024-03-07T23:10:32.665Z,100762.28
2024-03-07T23:13:01.990Z,100758.66
2024-03-07T23:15:32.340Z,100763.69
2024-03-07T23:18:02.396Z,100768.88
2024-03-07T23:20:30.974Z,100761.31
2024-03-07T23:23:00.349Z,100761.50
2024-03-07T23:25:30.009Z,100762.47
2024-03-07T23:28:01.166Z,100762.31
2024-03-07T23:30:31.496Z,100767.50
2024-03-07T23:33:00.176Z,100764.66
2024-03-07T23:35:29.080Z,100769.06
2024-03-07T23:37:58.519Z,100769.25
2024-03-07T23:40:30.304Z,100771.41
2024-03-07T23:42:59.164Z,100770.16
2024-03-07T23:45:28.746Z,100769.53
2024-03-07T23:47:59.243Z,100776.78
2024-03-07T23:50:28.382Z,100770.66
2024-03-07T23:52:56.659Z,100775.34
2024-03-07T23:55:25.258Z,100777.25
2024-03-07T23:57:53.477Z,100773.97
